Terminal Aerodrome Forecast
Issued by NWS

Current Version | Previous Version | Text Only | Print | Product List | Glossary On
Versions: 1 2 3 4 5 6 7 8 9 10 11 12 13
000
FTUS45 KGJT 181139
TAFRIL
TAF
KRIL 181139Z 1812/1912 10005KT P6SM FEW250
     FM181900 29009KT P6SM FEW110
      TEMPO 1820/1823 32010G20KT
     FM190200 14006KT P6SM FEW120
     FM190800 00000KT P6SM FEW200
     FM190900 12006KT P6SM FEW200=

USA.gov is the U.S. government's official web portal to all federal, state and local government web resources and services.